Time;durP1;ratioP1;P1;durP2;ratioP2;P2;SDS_P1;SDS_P2;PMS_P1;PMS_P2;Temp;Humidity;BMP_temperature;BMP_pressure;BME280_temperature;BME280_humidity;BME280_pressure;Samples;Min_cycle;Max_cycle;Signal;HPM_P1;HPM_P2
2023/08/31 00:00:49;;;;;;;3.13;2.67;;;;;;;19.07;60.11;98178.78;6997364;28;20206;-85
2023/08/31 00:04:14;;;;;;;3.10;2.63;;;;;;;18.27;62.45;98149.47;6997454;28;20726;-85
2023/08/31 00:07:35;;;;;;;2.77;2.47;;;;;;;18.60;60.47;98180.94;6992910;28;20199;-84
2023/08/31 00:10:58;;;;;;;4.77;2.80;;;;;;;18.87;60.86;98159.66;6989399;28;20260;-85
2023/08/31 00:14:22;;;;;;;3.43;2.87;;;;;;;19.67;60.45;98204.13;6990029;28;20309;-83
2023/08/31 00:17:43;;;;;;;6.10;2.90;;;;;;;19.96;60.41;98205.13;6989658;28;20292;-85
2023/08/31 00:21:05;;;;;;;3.90;2.97;;;;;;;19.81;58.89;98186.03;6989420;28;20671;-84
2023/08/31 00:24:31;;;;;;;5.70;3.00;;;;;;;19.46;58.81;98188.06;6988268;28;20230;-84
2023/08/31 00:27:54;;;;;;;3.60;2.50;;;;;;;19.24;60.11;98195.75;7003647;28;20204;-85
2023/08/31 00:31:17;;;;;;;4.27;3.07;;;;;;;19.71;60.14;98191.56;7015778;28;20201;-84
2023/08/31 00:34:39;;;;;;;7.23;3.10;;;;;;;19.80;60.11;98198.06;7014641;28;20220;-84
2023/08/31 00:38:01;;;;;;;6.20;3.20;;;;;;;19.99;59.75;98195.56;7013986;28;20663;-84
2023/08/31 00:41:23;;;;;;;5.00;2.80;;;;;;;19.79;60.42;98214.75;7014173;28;20212;-84
2023/08/31 00:44:46;;;;;;;4.90;3.10;;;;;;;19.58;60.39;98208.53;7013525;28;20275;-84
2023/08/31 00:48:09;;;;;;;3.67;2.70;;;;;;;19.77;59.63;98206.84;7017776;28;20796;-85
2023/08/31 00:51:30;;;;;;;3.63;2.73;;;;;;;19.73;59.76;98211.22;7020039;28;20293;-86
2023/08/31 00:54:52;;;;;;;3.70;2.63;;;;;;;19.96;58.63;98220.72;7021134;28;20222;-85
2023/08/31 00:58:14;;;;;;;2.70;2.47;;;;;;;19.76;58.79;98220.81;7019873;28;20206;-84
2023/08/31 01:01:39;;;;;;;4.90;3.00;;;;;;;19.36;59.52;98177.13;7018266;28;20197;-83
2023/08/31 01:05:09;;;;;;;4.07;2.50;;;;;;;19.65;59.61;98230.97;6994736;28;20237;-84
2023/08/31 01:08:38;;;;;;;3.53;3.17;;;;;;;19.22;60.52;98220.59;6979153;28;20201;-84
2023/08/31 01:12:04;;;;;;;5.07;2.80;;;;;;;18.74;61.55;98184.81;6980625;28;20208;-84
2023/08/31 01:15:29;;;;;;;4.23;2.70;;;;;;;18.70;61.91;98203.63;6982317;28;20258;-85
2023/08/31 01:18:51;;;;;;;4.57;3.20;;;;;;;18.87;61.28;98195.97;6980328;28;20656;-84
2023/08/31 01:22:17;;;;;;;4.77;2.80;;;;;;;18.59;62.00;98199.25;6981714;28;20268;-84
2023/08/31 01:25:43;;;;;;;6.67;2.80;;;;;;;19.30;59.67;98190.00;6998842;28;20225;-86
2023/08/31 01:29:05;;;;;;;5.03;2.80;;;;;;;19.13;60.75;98205.84;6979824;28;20193;-85
2023/08/31 01:32:27;;;;;;;3.30;2.90;;;;;;;19.43;60.39;98205.00;6980863;28;20208;-85
2023/08/31 01:35:52;;;;;;;3.80;3.10;;;;;;;19.05;61.38;98222.75;6982492;28;20232;-85
2023/08/31 01:39:17;;;;;;;4.83;2.97;;;;;;;19.34;60.89;98226.59;6984196;28;20649;-85
2023/08/31 01:42:41;;;;;;;3.73;3.30;;;;;;;18.38;62.28;98234.94;6984073;28;20209;-84
2023/08/31 01:46:03;;;;;;;4.20;3.50;;;;;;;18.75;61.60;98220.00;6983509;28;20373;-85
2023/08/31 01:49:25;;;;;;;4.10;3.70;;;;;;;18.59;61.73;98242.94;6981822;28;20215;-83
2023/08/31 01:52:47;;;;;;;3.57;3.27;;;;;;;18.91;60.68;98240.78;6983759;28;20311;-82
2023/08/31 01:56:08;;;;;;;5.13;3.30;;;;;;;18.85;60.95;98247.34;6983271;28;20225;-82
2023/08/31 01:59:31;;;;;;;3.77;3.40;;;;;;;18.83;61.35;98237.78;6984004;28;20208;-84
2023/08/31 02:02:55;;;;;;;3.47;3.17;;;;;;;18.84;61.04;98247.59;6983745;28;20661;-83
2023/08/31 02:06:17;;;;;;;5.67;3.30;;;;;;;18.63;62.24;98249.47;6982218;28;20224;-83
2023/08/31 02:09:38;;;;;;;3.40;3.10;;;;;;;18.79;61.59;98245.69;6982589;28;20220;-85
2023/08/31 02:13:00;;;;;;;4.13;3.50;;;;;;;18.59;61.45;98232.03;6982083;28;20229;-84
2023/08/31 02:16:23;;;;;;;6.67;3.60;;;;;;;18.47;61.34;98201.41;6981015;28;20327;-84
2023/08/31 02:19:45;;;;;;;3.57;3.23;;;;;;;18.54;61.31;98234.72;6982017;28;20235;-84
2023/08/31 02:23:06;;;;;;;4.63;3.17;;;;;;;18.53;61.68;98243.19;6981712;28;20208;-83
2023/08/31 02:26:28;;;;;;;4.20;2.97;;;;;;;18.88;60.78;98240.53;6980789;28;20791;-84
2023/08/31 02:29:49;;;;;;;3.53;2.90;;;;;;;18.87;61.21;98233.44;6980367;28;20236;-84
2023/08/31 02:33:12;;;;;;;3.20;2.90;;;;;;;18.92;60.93;98241.63;6980733;28;20240;-84
2023/08/31 02:36:33;;;;;;;3.23;2.80;;;;;;;18.87;59.66;98220.56;6979655;28;20206;-84
2023/08/31 02:39:55;;;;;;;4.30;3.33;;;;;;;18.51;59.85;98188.03;6981033;28;20352;-84
2023/08/31 02:43:17;;;;;;;4.30;3.77;;;;;;;18.64;61.57;98266.69;6986514;28;20322;-84
2023/08/31 02:46:38;;;;;;;3.40;3.03;;;;;;;18.79;61.17;98253.91;6985468;28;20594;-83
2023/08/31 02:50:01;;;;;;;3.70;2.87;;;;;;;18.53;60.11;98144.91;6987425;28;20219;-83
2023/08/31 02:53:22;;;;;;;4.20;3.40;;;;;;;18.84;61.01;98259.38;6986826;28;20231;-84
2023/08/31 02:56:44;;;;;;;4.30;2.80;;;;;;;19.36;59.54;98253.69;6976511;28;20239;-85
2023/08/31 03:00:10;;;;;;;4.63;2.57;;;;;;;19.42;59.08;98239.75;6971750;28;20320;-85
2023/08/31 03:03:31;;;;;;;3.30;3.03;;;;;;;18.88;60.43;98245.97;6971386;28;20589;-86
2023/08/31 03:06:54;;;;;;;4.70;3.17;;;;;;;18.88;61.51;98267.84;6970503;28;20243;-85
2023/08/31 03:10:16;;;;;;;4.63;2.90;;;;;;;19.05;61.16;98254.75;6970977;28;20304;-84
2023/08/31 03:13:37;;;;;;;5.47;3.30;;;;;;;18.59;62.76;98229.28;6971292;28;20292;-85
2023/08/31 03:16:59;;;;;;;4.70;3.00;;;;;;;18.27;62.46;98200.50;6977237;28;20247;-85
2023/08/31 03:20:20;;;;;;;6.00;2.90;;;;;;;19.15;61.43;98277.44;6989416;28;20222;-84
2023/08/31 03:23:43;;;;;;;5.80;2.80;;;;;;;19.10;61.36;98254.75;6990210;28;20303;-84
2023/08/31 03:27:05;;;;;;;3.13;2.67;;;;;;;18.66;61.92;98210.72;6989932;28;20206;-85
2023/08/31 03:30:27;;;;;;;5.57;3.20;;;;;;;18.94;61.44;98277.69;6987883;28;20235;-85
2023/08/31 03:33:48;;;;;;;4.10;2.70;;;;;;;18.06;61.89;98209.72;6988981;28;20284;-84
2023/08/31 03:37:10;;;;;;;4.43;2.80;;;;;;;18.47;61.49;98290.66;6989643;28;20212;-84
2023/08/31 03:40:33;;;;;;;4.20;2.87;;;;;;;18.75;59.02;98214.53;6990389;28;20221;-83
2023/08/31 03:43:54;;;;;;;4.23;2.77;;;;;;;18.56;59.54;98254.38;6990996;28;20588;-83
2023/08/31 03:47:16;;;;;;;3.03;2.73;;;;;;;19.00;59.35;98279.31;6989234;28;20210;-83
2023/08/31 03:50:38;;;;;;;5.23;2.50;;;;;;;19.49;57.53;98288.66;6991283;28;20209;-83
2023/08/31 03:53:59;;;;;;;4.90;2.60;;;;;;;19.27;57.93;98285.41;6991542;28;20223;-85
2023/08/31 03:57:22;;;;;;;3.07;2.80;;;;;;;19.10;58.32;98266.50;6990597;28;20206;-83
2023/08/31 04:00:44;;;;;;;4.13;2.80;;;;;;;19.04;58.37;98270.31;6991115;28;20211;-85
2023/08/31 04:04:05;;;;;;;4.83;2.70;;;;;;;19.17;58.55;98304.50;6990845;28;20259;-83
2023/08/31 04:07:27;;;;;;;6.50;3.13;;;;;;;18.89;59.69;98310.44;6990909;28;20215;-84
2023/08/31 04:10:48;;;;;;;3.57;2.80;;;;;;;18.91;59.92;98300.06;6971717;28;20632;-84
2023/08/31 04:14:11;;;;;;;3.07;2.77;;;;;;;18.03;60.06;98193.84;6990403;28;20218;-84
2023/08/31 04:17:33;;;;;;;7.20;4.10;;;;;;;18.91;59.59;98305.53;6993050;28;20208;-85
2023/08/31 04:20:58;;;;;;;5.07;2.77;;;;;;;19.02;58.59;98291.63;6993425;28;20205;-84
2023/08/31 04:24:20;;;;;;;4.00;3.00;;;;;;;19.02;59.21;98329.03;6993367;28;20256;-84
2023/08/31 04:27:42;;;;;;;4.47;3.03;;;;;;;19.20;58.78;98323.91;6987513;28;20274;-83
2023/08/31 04:31:07;;;;;;;7.60;3.10;;;;;;;19.13;58.28;98319.78;6983855;28;20294;-81
2023/08/31 04:34:28;;;;;;;3.47;3.17;;;;;;;18.55;59.33;98284.69;6982012;28;20239;-82
2023/08/31 04:37:50;;;;;;;4.67;2.60;;;;;;;19.11;57.82;98294.66;6974480;28;20275;-81
2023/08/31 04:41:11;;;;;;;4.43;2.90;;;;;;;19.17;57.46;98316.22;6969979;28;20336;-82
2023/08/31 04:44:33;;;;;;;4.00;2.80;;;;;;;18.89;58.54;98333.13;6973781;28;20712;-81
2023/08/31 04:47:56;;;;;;;4.40;2.70;;;;;;;18.42;59.88;98342.50;6971190;28;20205;-82
2023/08/31 04:51:32;;;;;;;4.17;2.90;;;;;;;18.60;59.82;98334.69;6971771;28;20682;-82
2023/08/31 04:54:53;;;;;;;5.80;2.83;;;;;;;18.97;58.89;98332.59;6974045;28;20225;-82
2023/08/31 04:58:15;;;;;;;3.87;2.73;;;;;;;18.89;58.53;98341.34;6975036;28;20281;-83
2023/08/31 05:01:36;;;;;;;4.43;2.87;;;;;;;18.99;58.28;98344.06;6972658;28;20299;-82
2023/08/31 05:04:59;;;;;;;4.00;2.90;;;;;;;18.50;58.27;98282.75;6972797;28;20238;-82
2023/08/31 05:08:21;;;;;;;5.60;3.10;;;;;;;18.96;58.38;98335.59;6972802;28;20288;-82
2023/08/31 05:11:42;;;;;;;3.00;2.70;;;;;;;19.05;58.32;98344.91;6977405;28;20681;-83
2023/08/31 05:15:04;;;;;;;4.73;2.90;;;;;;;19.27;57.17;98351.00;6978402;28;20351;-83
2023/08/31 05:18:26;;;;;;;3.67;2.97;;;;;;;19.25;57.43;98361.38;6994590;28;20320;-82
2023/08/31 05:21:49;;;;;;;5.47;2.77;;;;;;;19.39;56.85;98340.63;6979909;28;20216;-83
2023/08/31 05:25:10;;;;;;;3.43;2.70;;;;;;;19.33;57.61;98371.78;6979441;28;20354;-83
2023/08/31 05:28:31;;;;;;;2.93;2.60;;;;;;;19.21;58.20;98366.56;6979639;28;20672;-83
2023/08/31 05:31:53;;;;;;;7.67;2.67;;;;;;;19.28;57.17;98352.66;6981055;28;20288;-83
2023/08/31 05:35:15;;;;;;;3.40;2.50;;;;;;;19.55;56.51;98359.50;6977346;28;20309;-83
2023/08/31 05:38:38;;;;;;;5.80;2.80;;;;;;;19.44;57.01;98371.50;6983019;28;20212;-84
2023/08/31 05:41:59;;;;;;;6.10;2.40;;;;;;;19.47;56.17;98386.56;6980172;28;20195;-83
2023/08/31 05:45:21;;;;;;;6.20;3.00;;;;;;;19.36;56.95;98393.09;6979050;28;20318;-84
2023/08/31 05:48:42;;;;;;;5.73;2.70;;;;;;;19.51;56.43;98390.41;6980713;28;20306;-83
2023/08/31 05:52:05;;;;;;;4.43;2.37;;;;;;;19.64;55.84;98387.13;6977246;28;20245;-82
2023/08/31 05:55:27;;;;;;;6.17;2.53;;;;;;;19.66;55.70;98385.75;6990246;28;20342;-83
2023/08/31 05:58:50;;;;;;;5.23;2.40;;;;;;;19.79;55.45;98400.78;6994005;28;20230;-83
2023/08/31 06:02:11;;;;;;;14.93;13.43;;;;;;;19.90;55.57;98386.84;6996601;28;20198;-84
2023/08/31 06:05:33;;;;;;;4.53;2.67;;;;;;;20.03;55.75;98399.97;6996412;28;20253;-84
2023/08/31 06:08:54;;;;;;;7.43;2.90;;;;;;;20.06;54.88;98396.72;6975681;28;20213;-83
2023/08/31 06:12:18;;;;;;;3.80;2.40;;;;;;;19.89;54.29;98335.13;6952469;28;20203;-83
2023/08/31 06:15:40;;;;;;;2.43;2.23;;;;;;;19.99;54.99;98396.13;6953520;28;20301;-84
2023/08/31 06:19:02;;;;;;;7.37;2.70;;;;;;;20.03;54.46;98410.91;6975366;28;20230;-83
2023/08/31 06:22:24;;;;;;;4.13;2.67;;;;;;;20.05;55.04;98408.72;6995627;28;20382;-83
2023/08/31 06:25:46;;;;;;;2.70;2.30;;;;;;;20.16;54.86;98420.53;7001197;28;20229;-82
2023/08/31 06:29:10;;;;;;;4.60;2.80;;;;;;;20.19;54.89;98422.69;7002111;28;20216;-85
2023/08/31 06:32:32;;;;;;;5.53;2.40;;;;;;;20.26;54.15;98429.53;7002899;28;20210;-82
2023/08/31 06:35:53;;;;;;;4.17;2.27;;;;;;;20.20;54.04;98422.44;6980821;28;20222;-82
2023/08/31 06:39:16;;;;;;;7.30;3.03;;;;;;;19.79;54.34;98419.94;6973857;28;20251;-84
2023/08/31 06:42:38;;;;;;;3.30;2.50;;;;;;;20.27;54.68;98422.16;6965680;28;20647;-84
2023/08/31 06:46:00;;;;;;;4.90;2.43;;;;;;;20.28;52.87;98374.50;6969292;28;20264;-83
2023/08/31 06:49:30;;;;;;;7.00;2.57;;;;;;;20.56;52.12;98423.16;6963704;28;20199;-83
2023/08/31 06:52:51;;;;;;;4.60;2.47;;;;;;;20.67;53.19;98442.84;6969650;28;20229;-83
2023/08/31 06:56:13;;;;;;;5.23;2.60;;;;;;;21.00;52.71;98452.41;6968699;28;20293;-83
2023/08/31 06:59:34;;;;;;;6.00;3.00;;;;;;;20.73;53.08;98442.84;6968956;28;20202;-82
2023/08/31 07:02:57;;;;;;;3.53;2.60;;;;;;;20.95;51.92;98437.88;6963109;28;20263;-82
2023/08/31 07:06:18;;;;;;;2.73;2.30;;;;;;;20.85;51.48;98444.19;6970721;28;20292;-82
2023/08/31 07:09:40;;;;;;;4.30;2.23;;;;;;;20.31;53.00;98417.75;6972460;28;20206;-82
2023/08/31 07:13:02;;;;;;;4.90;2.20;;;;;;;20.96;51.60;98440.34;6973538;28;20203;-81
2023/08/31 07:16:23;;;;;;;5.10;2.50;;;;;;;21.27;49.06;98443.78;6973102;28;20218;-82
2023/08/31 07:19:47;;;;;;;3.17;2.57;;;;;;;20.90;49.79;98424.19;6964962;28;20242;-84
2023/08/31 07:23:09;;;;;;;6.03;2.53;;;;;;;20.67;51.63;98337.94;6969060;28;20195;-84
2023/08/31 07:26:31;;;;;;;5.30;2.60;;;;;;;21.89;48.97;98453.00;6958771;28;20254;-84
2023/08/31 07:29:55;;;;;;;3.10;2.43;;;;;;;22.12;47.45;98472.28;6966471;28;20330;-83
2023/08/31 07:33:16;;;;;;;5.60;2.30;;;;;;;22.07;44.60;98442.13;6965617;28;20229;-83
2023/08/31 07:36:40;;;;;;;7.00;2.60;;;;;;;21.75;46.88;98472.03;6960495;28;20268;-83
2023/08/31 07:40:01;;;;;;;4.87;2.83;;;;;;;20.80;48.68;98471.59;6970688;28;20210;-83
2023/08/31 07:43:23;;;;;;;4.43;2.40;;;;;;;21.26;47.92;98489.56;6926016;28;1089092;-83
2023/08/31 07:46:44;;;;;;;5.47;2.80;;;;;;;21.72;46.08;98485.50;6966974;28;20309;-83
2023/08/31 07:50:07;;;;;;;2.37;2.10;;;;;;;22.47;44.39;98483.00;6971125;28;20348;-83
2023/08/31 07:53:30;;;;;;;14.47;5.20;;;;;;;22.66;44.45;98492.16;6970426;28;20234;-83
2023/08/31 07:56:51;;;;;;;13.87;4.73;;;;;;;22.19;46.26;98475.50;6970320;28;20339;-83
2023/08/31 08:00:14;;;;;;;15.33;7.27;;;;;;;22.76;45.15;98481.06;6964502;28;20246;-82
2023/08/31 08:03:36;;;;;;;4.97;3.13;;;;;;;22.80;42.69;98421.66;6962643;28;20306;-82
2023/08/31 08:06:57;;;;;;;6.80;2.70;;;;;;;23.87;41.94;98472.22;6956154;28;20242;-84
2023/08/31 08:10:20;;;;;;;2.83;2.60;;;;;;;24.40;39.81;98471.66;6940132;28;20283;-84
2023/08/31 08:13:42;;;;;;;5.70;2.30;;;;;;;24.74;41.08;98485.13;6957784;28;20261;-85
2023/08/31 08:17:04;;;;;;;5.17;2.90;;;;;;;25.02;40.02;98471.03;6952788;28;20273;-87
2023/08/31 08:20:25;;;;;;;7.63;3.20;;;;;;;24.77;39.97;98467.97;6967384;28;20271;-86
2023/08/31 08:23:47;;;;;;;3.40;2.03;;;;;;;25.55;39.23;98466.63;6966025;28;20239;-85
2023/08/31 08:27:10;;;;;;;3.97;2.40;;;;;;;25.64;38.20;98390.22;6960396;28;20704;-82
2023/08/31 08:30:32;;;;;;;5.73;3.17;;;;;;;24.89;39.51;98357.97;6966599;28;20211;-84
2023/08/31 08:33:53;;;;;;;6.03;3.37;;;;;;;24.58;39.90;98404.63;6966601;28;20227;-85
2023/08/31 08:37:15;;;;;;;4.03;2.70;;;;;;;25.99;39.42;98465.94;6967555;28;20204;-86
2023/08/31 08:40:36;;;;;;;3.67;2.87;;;;;;;25.90;35.69;98471.38;6966568;28;20249;-81
2023/08/31 08:44:03;;;;;;;5.60;2.50;;;;;;;25.27;36.33;98478.84;6959713;28;20273;-84
2023/08/31 08:47:25;;;;;;;6.30;2.87;;;;;;;23.73;36.84;98499.66;6950447;28;20235;-86
2023/08/31 08:50:47;;;;;;;4.03;2.57;;;;;;;23.67;35.80;98489.03;6969690;28;20202;-82
2023/08/31 08:54:09;;;;;;;4.70;2.60;;;;;;;24.17;35.58;98493.78;6960761;28;20223;-82
2023/08/31 08:57:31;;;;;;;5.53;2.80;;;;;;;22.84;37.31;98504.34;6956872;28;20245;-84
2023/08/31 09:00:56;;;;;;;3.57;2.30;;;;;;;22.59;37.49;98510.09;6967058;28;20777;-83
2023/08/31 09:04:17;;;;;;;3.77;2.30;;;;;;;22.76;38.04;98504.97;6959056;28;20292;-83
2023/08/31 09:07:39;;;;;;;4.07;2.40;;;;;;;23.25;36.38;98511.06;6965437;28;20395;-83
2023/08/31 09:11:01;;;;;;;6.07;2.63;;;;;;;23.13;36.11;98508.69;6966211;28;20284;-83
2023/08/31 09:14:23;;;;;;;3.60;2.50;;;;;;;22.92;36.80;98509.19;6966106;28;20233;-85
2023/08/31 09:17:47;;;;;;;4.63;2.27;;;;;;;23.14;36.94;98513.06;6960027;28;20215;-82
2023/08/31 09:21:13;;;;;;;3.50;2.00;;;;;;;23.15;36.38;98502.88;6950160;28;20222;-82
2023/08/31 09:24:42;;;;;;;3.00;2.10;;;;;;;23.14;37.15;98517.75;6966231;28;20228;-83
2023/08/31 09:28:04;;;;;;;2.63;2.43;;;;;;;24.12;35.92;98511.22;6966101;28;20226;-82
2023/08/31 09:31:30;;;;;;;2.63;2.13;;;;;;;24.87;34.78;98506.38;6953219;28;20366;-82
2023/08/31 09:34:53;;;;;;;4.17;2.60;;;;;;;25.10;35.13;98497.94;6960764;28;20225;-84
2023/08/31 09:38:15;;;;;;;3.60;2.33;;;;;;;24.67;35.40;98515.84;6970963;28;20236;-82
2023/08/31 09:41:53;;;;;;;3.87;2.30;;;;;;;24.40;34.75;98512.16;6971544;28;20588;-83
2023/08/31 09:45:17;;;;;;;2.80;2.20;;;;;;;23.89;35.34;98495.59;6967337;28;20295;-85
2023/08/31 09:48:40;;;;;;;3.80;2.23;;;;;;;24.31;37.10;98523.03;6961950;28;20204;-84
2023/08/31 09:52:05;;;;;;;5.13;2.40;;;;;;;24.10;37.36;98449.28;6958856;28;20307;-81
2023/08/31 09:55:29;;;;;;;5.10;2.20;;;;;;;24.59;37.27;98524.81;6968378;28;20601;-86
2023/08/31 09:58:50;;;;;;;3.27;2.10;;;;;;;24.73;37.50;98531.16;6971378;28;20192;-86
2023/08/31 10:02:13;;;;;;;4.77;2.40;;;;;;;24.96;35.33;98516.41;6972593;28;20242;-85
2023/08/31 10:05:34;;;;;;;4.80;2.47;;;;;;;24.74;36.43;98527.31;6971325;28;20284;-83
2023/08/31 10:08:57;;;;;;;3.17;2.20;;;;;;;25.29;35.46;98493.16;6967995;28;20711;-86
2023/08/31 10:12:19;;;;;;;4.07;2.10;;;;;;;26.42;32.11;98519.63;6967718;28;20764;-86
2023/08/31 10:15:43;;;;;;;3.87;2.40;;;;;;;26.81;31.51;98517.78;6971797;28;20320;-85
2023/08/31 10:19:05;;;;;;;4.23;2.33;;;;;;;25.48;31.29;98502.13;6961076;28;20239;-85
2023/08/31 10:22:26;;;;;;;4.00;2.63;;;;;;;24.54;32.96;98515.78;6968237;28;20343;-85
2023/08/31 10:26:04;;;;;;;4.53;2.17;;;;;;;25.30;33.31;98521.59;6969673;28;20228;-84
2023/08/31 10:29:29;;;;;;;5.10;2.50;;;;;;;25.28;32.35;98527.41;6951734;28;20567;-82
2023/08/31 10:33:04;;;;;;;4.13;2.47;;;;;;;24.63;32.20;98525.03;6963834;28;20218;-83
2023/08/31 10:36:37;;;;;;;4.70;2.27;;;;;;;25.31;31.23;98526.78;6964055;28;20295;-83
2023/08/31 10:40:08;;;;;;;5.03;2.23;;;;;;;25.99;29.20;98516.50;6969543;28;20531;-82
2023/08/31 10:43:44;;;;;;;4.87;2.50;;;;;;;25.24;30.77;98520.06;6957395;28;20610;-82
2023/08/31 10:47:06;;;;;;;3.27;2.30;;;;;;;24.90;31.27;98514.84;6966521;28;20355;-82
2023/08/31 10:50:28;;;;;;;2.93;2.13;;;;;;;24.26;32.10;98525.88;6971732;28;20215;-78
2023/08/31 10:53:50;;;;;;;4.27;2.33;;;;;;;24.57;32.45;98526.22;6973003;28;20314;-80
2023/08/31 10:57:13;;;;;;;5.00;2.60;;;;;;;24.21;32.08;98478.31;6972383;28;20214;-81
2023/08/31 11:00:49;;;;;;;5.37;2.60;;;;;;;23.62;33.04;98520.22;6967290;28;20212;-80
2023/08/31 11:04:11;;;;;;;4.57;2.53;;;;;;;24.30;33.67;98524.16;6971715;28;20222;-82
2023/08/31 11:07:34;;;;;;;5.07;2.63;;;;;;;25.13;32.26;98518.59;6963075;28;20464;-82
2023/08/31 11:10:56;;;;;;;5.77;2.40;;;;;;;25.39;31.30;98526.09;6969558;28;20217;-82
2023/08/31 11:14:17;;;;;;;2.73;2.17;;;;;;;25.30;31.34;98505.84;6968720;28;20309;-84
2023/08/31 11:17:41;;;;;;;4.47;2.40;;;;;;;25.81;30.86;98534.00;6964133;28;20244;-82
2023/08/31 11:21:05;;;;;;;5.50;3.00;;;;;;;25.91;30.85;98530.22;6954796;28;20212;-84
2023/08/31 11:24:27;;;;;;;5.00;2.37;;;;;;;25.29;31.84;98536.50;6967881;28;20260;-84
2023/08/31 11:27:55;;;;;;;4.70;2.70;;;;;;;24.74;32.18;98538.34;6969609;28;20317;-82
2023/08/31 11:31:24;;;;;;;3.00;2.63;;;;;;;24.56;33.70;98527.31;6956853;28;20224;-82
2023/08/31 11:34:47;;;;;;;4.13;2.60;;;;;;;24.48;34.01;98526.06;6968379;28;20260;-82
2023/08/31 11:38:08;;;;;;;3.20;2.17;;;;;;;24.38;33.37;98525.44;6971608;28;20275;-82
2023/08/31 11:41:31;;;;;;;4.23;2.40;;;;;;;24.68;32.67;98516.66;6957344;28;20219;-81
2023/08/31 11:44:53;;;;;;;2.63;2.40;;;;;;;25.47;31.75;98517.06;6973433;28;20298;-84
2023/08/31 11:48:15;;;;;;;5.07;2.50;;;;;;;25.31;32.30;98529.53;6963311;28;20796;-84
2023/08/31 11:51:40;;;;;;;3.63;2.33;;;;;;;25.35;31.77;98521.47;6967043;28;20202;-84
2023/08/31 11:55:02;;;;;;;2.87;2.13;;;;;;;25.37;32.72;98511.75;6975232;28;20245;-83
2023/08/31 11:58:24;;;;;;;5.90;2.60;;;;;;;25.03;31.65;98521.53;6969030;28;20203;-84
2023/08/31 12:01:47;;;;;;;5.10;2.80;;;;;;;24.94;32.51;98512.31;6959797;28;20211;-84
2023/08/31 12:05:09;;;;;;;8.47;2.80;;;;;;;24.93;32.82;98496.88;6971524;28;20590;-82
2023/08/31 12:08:32;;;;;;;5.87;2.47;;;;;;;25.21;33.04;98520.63;6956787;28;20228;-84
2023/08/31 12:11:54;;;;;;;4.43;2.60;;;;;;;25.16;31.87;98507.75;6957476;28;20253;-84
2023/08/31 12:15:16;;;;;;;4.63;2.40;;;;;;;25.33;32.21;98518.19;6965463;28;20315;-84
2023/08/31 12:18:38;;;;;;;3.90;2.53;;;;;;;25.74;32.21;98513.44;6957297;28;20299;-84
2023/08/31 12:22:00;;;;;;;4.87;2.50;;;;;;;25.21;31.83;98504.06;6966081;28;20214;-85
2023/08/31 12:25:23;;;;;;;4.20;2.87;;;;;;;25.08;32.50;98521.44;6965039;28;20444;-84
2023/08/31 12:28:45;;;;;;;4.43;2.60;;;;;;;25.20;33.29;98521.75;6962525;28;20245;-81
2023/08/31 12:32:07;;;;;;;4.73;2.70;;;;;;;25.47;32.34;98530.03;6966311;28;20196;-82
2023/08/31 12:35:30;;;;;;;5.70;2.53;;;;;;;25.63;32.09;98520.31;6954225;28;20267;-82
2023/08/31 12:38:52;;;;;;;4.77;2.70;;;;;;;25.27;33.00;98448.50;6955845;28;20212;-83
2023/08/31 12:42:14;;;;;;;3.57;3.00;;;;;;;25.90;31.51;98501.78;6962570;28;20254;-83
2023/08/31 12:45:36;;;;;;;6.57;2.90;;;;;;;25.80;31.79;98493.72;6963283;28;20267;-83
2023/08/31 12:48:58;;;;;;;7.87;3.00;;;;;;;25.97;32.09;98504.13;6965487;28;20225;-83
2023/08/31 12:52:19;;;;;;;5.03;2.73;;;;;;;25.97;31.53;98501.34;6962101;28;20208;-82
2023/08/31 12:55:41;;;;;;;3.73;2.43;;;;;;;25.40;31.96;98502.88;6957626;28;20713;-82
2023/08/31 12:59:05;;;;;;;4.80;2.50;;;;;;;25.53;31.80;98499.28;6957857;28;20261;-83
2023/08/31 13:02:26;;;;;;;6.17;2.70;;;;;;;26.52;30.62;98497.22;6965825;28;20752;-83
2023/08/31 13:05:48;;;;;;;3.90;2.40;;;;;;;25.99;32.16;98493.56;6966396;28;20314;-82
2023/08/31 13:09:10;;;;;;;4.60;2.63;;;;;;;26.41;30.91;98493.06;6951267;28;20230;-83
2023/08/31 13:12:32;;;;;;;4.10;2.60;;;;;;;26.05;32.05;98518.00;6957800;28;20208;-83
2023/08/31 13:15:54;;;;;;;3.30;2.27;;;;;;;25.87;33.06;98518.97;6962532;28;20254;-83
2023/08/31 13:19:16;;;;;;;3.63;2.60;;;;;;;26.04;31.84;98502.56;6951808;28;20728;-82
2023/08/31 13:22:39;;;;;;;3.13;2.70;;;;;;;25.57;32.53;98507.75;6966458;28;20226;-82
2023/08/31 13:26:00;;;;;;;7.07;2.50;;;;;;;25.48;33.39;98510.41;6964009;28;20363;-82
2023/08/31 13:29:22;;;;;;;3.93;2.30;;;;;;;25.13;32.98;98518.59;6956357;28;20232;-82
2023/08/31 13:32:45;;;;;;;4.30;2.87;;;;;;;25.17;34.42;98503.03;6964078;28;20432;-81
2023/08/31 13:36:06;;;;;;;6.50;3.30;;;;;;;25.56;33.38;98506.94;6968730;28;20968;-81
2023/08/31 13:39:28;;;;;;;5.27;2.90;;;;;;;25.83;33.57;98501.34;6971210;28;20216;-82
2023/08/31 13:42:56;;;;;;;5.27;3.10;;;;;;;25.37;33.47;98503.47;6968522;28;20303;-81
2023/08/31 13:46:20;;;;;;;3.57;2.43;;;;;;;25.74;33.47;98497.72;6970906;28;20207;-82
2023/08/31 13:49:43;;;;;;;4.97;2.57;;;;;;;25.78;33.00;98407.56;6965019;28;20644;-82
2023/08/31 13:53:05;;;;;;;3.83;2.63;;;;;;;26.48;31.07;98487.94;6964823;28;20295;-82
2023/08/31 13:56:26;;;;;;;4.40;2.60;;;;;;;25.72;32.36;98453.00;6971462;28;20211;-82
2023/08/31 13:59:48;;;;;;;4.80;2.70;;;;;;;26.28;30.52;98444.22;6964324;28;20273;-82
2023/08/31 14:03:09;;;;;;;3.37;3.07;;;;;;;26.61;30.93;98479.59;6970846;28;20251;-82
2023/08/31 14:06:33;;;;;;;4.20;2.33;;;;;;;25.62;31.64;98471.75;6957726;28;20278;-82
2023/08/31 14:09:55;;;;;;;4.50;2.50;;;;;;;26.01;31.60;98469.22;6967664;28;20337;-82
2023/08/31 14:13:16;;;;;;;6.43;3.17;;;;;;;26.23;31.54;98469.22;6971702;28;20261;-81
2023/08/31 14:16:38;;;;;;;3.43;2.47;;;;;;;26.32;31.58;98470.91;6964968;28;20206;-81
2023/08/31 14:20:00;;;;;;;4.27;2.43;;;;;;;26.36;31.48;98471.13;6958466;28;20205;-82
2023/08/31 14:23:23;;;;;;;3.90;2.70;;;;;;;25.91;32.27;98462.00;6968447;28;20218;-82
2023/08/31 14:26:45;;;;;;;5.03;2.87;;;;;;;25.36;33.55;98471.47;6968181;28;20315;-82
2023/08/31 14:30:08;;;;;;;4.00;2.43;;;;;;;25.42;33.38;98458.41;6962594;28;20200;-81
2023/08/31 14:33:29;;;;;;;3.63;2.60;;;;;;;25.18;33.13;98447.53;6968806;28;20720;-81
2023/08/31 14:36:52;;;;;;;7.40;3.00;;;;;;;25.35;33.73;98472.59;6962375;28;20285;-81
2023/08/31 14:40:15;;;;;;;6.47;2.60;;;;;;;25.55;33.32;98474.13;6978489;28;20223;-80
2023/08/31 14:43:36;;;;;;;5.20;2.47;;;;;;;25.68;34.27;98476.84;6971107;28;20273;-80
2023/08/31 14:46:58;;;;;;;6.60;2.60;;;;;;;25.52;35.12;98477.47;6961534;28;20258;-81
2023/08/31 14:50:43;;;;;;;3.77;2.27;;;;;;;25.57;35.03;98480.13;6968857;28;20233;-80
2023/08/31 14:54:04;;;;;;;6.37;2.93;;;;;;;25.80;35.40;98487.34;6972487;28;20267;-82
2023/08/31 14:57:27;;;;;;;6.27;2.50;;;;;;;25.55;36.84;98488.72;6965173;28;20268;-79
2023/08/31 15:00:49;;;;;;;4.27;2.50;;;;;;;25.61;37.43;98464.59;6967697;28;20209;-82
2023/08/31 15:04:10;;;;;;;5.07;2.67;;;;;;;25.60;36.44;98474.81;6963097;28;20696;-82
2023/08/31 15:07:32;;;;;;;3.97;2.53;;;;;;;24.67;36.66;98380.72;6962159;28;20751;-80
2023/08/31 15:10:54;;;;;;;5.63;2.80;;;;;;;25.17;37.19;98492.81;6960265;28;20240;-84
2023/08/31 15:14:17;;;;;;;4.00;2.73;;;;;;;24.95;36.88;98494.66;6967782;28;20255;-83
2023/08/31 15:17:39;;;;;;;3.70;2.40;;;;;;;24.54;36.87;98472.47;6964350;28;20208;-83
2023/08/31 15:21:01;;;;;;;4.00;2.67;;;;;;;25.24;36.44;98498.78;6968161;28;20275;-82
2023/08/31 15:24:22;;;;;;;5.20;2.60;;;;;;;25.18;35.91;98505.50;6968551;28;20617;-82
2023/08/31 15:27:44;;;;;;;4.03;2.50;;;;;;;24.81;35.58;98488.28;6967732;28;20321;-82
2023/08/31 15:31:06;;;;;;;4.87;2.57;;;;;;;24.48;36.03;98473.69;6969920;28;20243;-82
2023/08/31 15:34:28;;;;;;;4.73;2.73;;;;;;;24.96;36.14;98488.81;6968306;28;20289;-82
2023/08/31 15:37:51;;;;;;;4.17;2.40;;;;;;;24.88;36.32;98506.09;6973929;28;20292;-81
2023/08/31 15:41:14;;;;;;;3.10;2.23;;;;;;;24.98;36.32;98485.75;6964417;28;20223;-84
2023/08/31 15:44:41;;;;;;;11.00;4.70;;;;;;;25.04;37.17;98490.06;6970354;28;20268;-84
2023/08/31 15:48:04;;;;;;;4.30;2.90;;;;;;;24.91;36.29;98474.31;6972908;28;20264;-82
2023/08/31 15:51:28;;;;;;;5.03;2.43;;;;;;;24.43;37.06;98460.00;6977528;28;20207;-86
2023/08/31 15:54:53;;;;;;;6.57;2.80;;;;;;;24.97;37.21;98501.50;6972698;28;20233;-83